sensor_id;sensor_type;location;lat;lon;timestamp;temperature;humidity
12436;DHT22;6282;51.440;6.938;2024-01-30T00:00:57;10.40;99.90
12436;DHT22;6282;51.440;6.938;2024-01-30T00:03:25;10.40;99.90
12436;DHT22;6282;51.440;6.938;2024-01-30T00:05:52;10.40;99.90
12436;DHT22;6282;51.440;6.938;2024-01-30T00:08:19;10.40;99.90
12436;DHT22;6282;51.440;6.938;2024-01-30T00:10:45;10.40;99.90
12436;DHT22;6282;51.440;6.938;2024-01-30T00:13:12;10.40;99.90
12436;DHT22;6282;51.440;6.938;2024-01-30T00:15:41;10.40;99.90
12436;DHT22;6282;51.440;6.938;2024-01-30T00:18:08;10.30;99.90
12436;DHT22;6282;51.440;6.938;2024-01-30T00:20:36;10.30;99.90
12436;DHT22;6282;51.440;6.938;2024-01-30T00:23:03;10.30;99.90
12436;DHT22;6282;51.440;6.938;2024-01-30T00:25:30;10.90;99.90
12436;DHT22;6282;51.440;6.938;2024-01-30T00:27:58;10.40;99.90
12436;DHT22;6282;51.440;6.938;2024-01-30T00:30:25;10.40;99.90
12436;DHT22;6282;51.440;6.938;2024-01-30T00:32:53;10.70;99.90
12436;DHT22;6282;51.440;6.938;2024-01-30T00:35:20;10.40;99.90
12436;DHT22;6282;51.440;6.938;2024-01-30T00:37:49;10.40;99.90
12436;DHT22;6282;51.440;6.938;2024-01-30T00:40:16;10.40;99.90
12436;DHT22;6282;51.440;6.938;2024-01-30T00:42:43;10.40;99.90
12436;DHT22;6282;51.440;6.938;2024-01-30T00:45:12;10.80;99.90
12436;DHT22;6282;51.440;6.938;2024-01-30T00:47:39;10.40;99.90
12436;DHT22;6282;51.440;6.938;2024-01-30T00:50:06;10.40;99.90
12436;DHT22;6282;51.440;6.938;2024-01-30T00:52:33;10.40;99.90
12436;DHT22;6282;51.440;6.938;2024-01-30T00:55:01;10.40;99.90
12436;DHT22;6282;51.440;6.938;2024-01-30T00:57:30;10.20;99.90
12436;DHT22;6282;51.440;6.938;2024-01-30T00:59:57;10.30;99.90
12436;DHT22;6282;51.440;6.938;2024-01-30T01:02:24;10.40;99.90
12436;DHT22;6282;51.440;6.938;2024-01-30T01:04:50;10.40;99.90
12436;DHT22;6282;51.440;6.938;2024-01-30T01:07:17;10.40;99.90
12436;DHT22;6282;51.440;6.938;2024-01-30T01:09:44;11.20;99.90
12436;DHT22;6282;51.440;6.938;2024-01-30T01:12:12;10.30;99.90
12436;DHT22;6282;51.440;6.938;2024-01-30T01:14:39;10.30;99.90
12436;DHT22;6282;51.440;6.938;2024-01-30T01:17:05;10.30;99.90
12436;DHT22;6282;51.440;6.938;2024-01-30T01:19:32;10.30;99.90
12436;DHT22;6282;51.440;6.938;2024-01-30T01:21:59;10.30;99.90
12436;DHT22;6282;51.440;6.938;2024-01-30T01:24:26;10.90;99.90
12436;DHT22;6282;51.440;6.938;2024-01-30T01:26:52;10.20;99.90
12436;DHT22;6282;51.440;6.938;2024-01-30T01:29:20;10.30;99.90
12436;DHT22;6282;51.440;6.938;2024-01-30T01:31:54;10.20;99.90
12436;DHT22;6282;51.440;6.938;2024-01-30T01:34:21;11.20;99.90
12436;DHT22;6282;51.440;6.938;2024-01-30T01:36:49;10.20;99.90
12436;DHT22;6282;51.440;6.938;2024-01-30T01:39:16;10.30;99.90
12436;DHT22;6282;51.440;6.938;2024-01-30T01:41:42;10.80;99.90
12436;DHT22;6282;51.440;6.938;2024-01-30T01:44:09;10.10;99.90
12436;DHT22;6282;51.440;6.938;2024-01-30T01:46:37;10.30;99.90
12436;DHT22;6282;51.440;6.938;2024-01-30T01:49:05;10.20;99.90
12436;DHT22;6282;51.440;6.938;2024-01-30T01:51:34;10.10;99.90
12436;DHT22;6282;51.440;6.938;2024-01-30T01:54:03;10.20;99.90
12436;DHT22;6282;51.440;6.938;2024-01-30T01:56:31;10.40;99.90
12436;DHT22;6282;51.440;6.938;2024-01-30T01:59:00;10.20;99.90
12436;DHT22;6282;51.440;6.938;2024-01-30T02:01:31;10.20;99.90
12436;DHT22;6282;51.440;6.938;2024-01-30T02:04:00;10.50;99.90
12436;DHT22;6282;51.440;6.938;2024-01-30T02:06:27;10.20;99.90
12436;DHT22;6282;51.440;6.938;2024-01-30T02:08:53;10.40;99.90
12436;DHT22;6282;51.440;6.938;2024-01-30T02:11:21;10.10;99.90
12436;DHT22;6282;51.440;6.938;2024-01-30T02:13:49;10.10;99.90
12436;DHT22;6282;51.440;6.938;2024-01-30T02:16:15;10.10;99.90
12436;DHT22;6282;51.440;6.938;2024-01-30T02:18:42;10.10;99.90
12436;DHT22;6282;51.440;6.938;2024-01-30T02:21:14;10.10;99.90
12436;DHT22;6282;51.440;6.938;2024-01-30T02:23:41;10.20;99.90
12436;DHT22;6282;51.440;6.938;2024-01-30T02:26:09;10.00;99.90
12436;DHT22;6282;51.440;6.938;2024-01-30T02:28:36;10.10;99.90
12436;DHT22;6282;51.440;6.938;2024-01-30T02:31:03;10.40;99.90
12436;DHT22;6282;51.440;6.938;2024-01-30T02:33:30;9.70;99.90
12436;DHT22;6282;51.440;6.938;2024-01-30T02:35:57;10.30;99.90
12436;DHT22;6282;51.440;6.938;2024-01-30T02:38:25;10.10;99.90
12436;DHT22;6282;51.440;6.938;2024-01-30T02:40:52;10.10;99.90
12436;DHT22;6282;51.440;6.938;2024-01-30T02:43:19;10.90;99.90
12436;DHT22;6282;51.440;6.938;2024-01-30T02:45:46;10.40;99.90
12436;DHT22;6282;51.440;6.938;2024-01-30T02:48:12;10.10;99.90
12436;DHT22;6282;51.440;6.938;2024-01-30T02:50:39;10.10;99.90
12436;DHT22;6282;51.440;6.938;2024-01-30T02:53:06;10.10;99.90
12436;DHT22;6282;51.440;6.938;2024-01-30T02:55:34;10.10;99.90
12436;DHT22;6282;51.440;6.938;2024-01-30T02:58:01;10.20;99.90
12436;DHT22;6282;51.440;6.938;2024-01-30T03:00:28;11.00;99.90
12436;DHT22;6282;51.440;6.938;2024-01-30T03:02:54;10.20;99.90
12436;DHT22;6282;51.440;6.938;2024-01-30T03:05:22;10.30;99.90
12436;DHT22;6282;51.440;6.938;2024-01-30T03:07:50;10.60;99.90
12436;DHT22;6282;51.440;6.938;2024-01-30T03:10:16;10.20;99.90
12436;DHT22;6282;51.440;6.938;2024-01-30T03:12:44;10.10;99.90
12436;DHT22;6282;51.440;6.938;2024-01-30T03:15:11;10.00;99.90
12436;DHT22;6282;51.440;6.938;2024-01-30T03:17:38;10.40;99.90
12436;DHT22;6282;51.440;6.938;2024-01-30T03:20:06;10.00;99.90
12436;DHT22;6282;51.440;6.938;2024-01-30T03:22:33;10.20;99.90
12436;DHT22;6282;51.440;6.938;2024-01-30T03:24:59;10.20;99.90
12436;DHT22;6282;51.440;6.938;2024-01-30T03:27:26;10.30;99.90
12436;DHT22;6282;51.440;6.938;2024-01-30T03:29:54;11.00;99.90
12436;DHT22;6282;51.440;6.938;2024-01-30T03:32:21;10.10;99.90
12436;DHT22;6282;51.440;6.938;2024-01-30T03:34:48;10.20;99.90
12436;DHT22;6282;51.440;6.938;2024-01-30T03:37:14;10.60;99.90
12436;DHT22;6282;51.440;6.938;2024-01-30T03:39:41;10.20;99.90
12436;DHT22;6282;51.440;6.938;2024-01-30T03:42:08;10.00;99.90
12436;DHT22;6282;51.440;6.938;2024-01-30T03:44:35;11.00;99.90
12436;DHT22;6282;51.440;6.938;2024-01-30T03:47:03;10.20;99.90
12436;DHT22;6282;51.440;6.938;2024-01-30T03:49:30;10.10;99.90
12436;DHT22;6282;51.440;6.938;2024-01-30T03:51:56;10.60;99.90
12436;DHT22;6282;51.440;6.938;2024-01-30T03:54:23;10.20;99.90
12436;DHT22;6282;51.440;6.938;2024-01-30T03:56:50;10.60;99.90
12436;DHT22;6282;51.440;6.938;2024-01-30T03:59:17;10.20;99.90
12436;DHT22;6282;51.440;6.938;2024-01-30T04:01:47;10.20;99.90
12436;DHT22;6282;51.440;6.938;2024-01-30T04:04:15;10.30;99.90
12436;DHT22;6282;51.440;6.938;2024-01-30T04:06:42;10.40;99.90
12436;DHT22;6282;51.440;6.938;2024-01-30T04:09:09;10.30;99.90
12436;DHT22;6282;51.440;6.938;2024-01-30T04:11:36;10.10;99.90
12436;DHT22;6282;51.440;6.938;2024-01-30T04:14:03;10.20;99.90
12436;DHT22;6282;51.440;6.938;2024-01-30T04:16:30;10.10;99.90
12436;DHT22;6282;51.440;6.938;2024-01-30T04:18:57;10.20;99.90
12436;DHT22;6282;51.440;6.938;2024-01-30T04:21:25;10.20;99.90
12436;DHT22;6282;51.440;6.938;2024-01-30T04:23:53;10.50;99.90
12436;DHT22;6282;51.440;6.938;2024-01-30T04:26:20;10.10;99.90
12436;DHT22;6282;51.440;6.938;2024-01-30T04:28:46;11.00;99.90
12436;DHT22;6282;51.440;6.938;2024-01-30T04:31:13;10.40;99.90
12436;DHT22;6282;51.440;6.938;2024-01-30T04:33:40;9.90;99.90
12436;DHT22;6282;51.440;6.938;2024-01-30T04:36:08;10.00;99.90
12436;DHT22;6282;51.440;6.938;2024-01-30T04:38:38;10.30;99.90
12436;DHT22;6282;51.440;6.938;2024-01-30T04:41:04;10.20;99.90
12436;DHT22;6282;51.440;6.938;2024-01-30T04:43:31;10.70;99.90
12436;DHT22;6282;51.440;6.938;2024-01-30T04:45:58;10.20;99.90
12436;DHT22;6282;51.440;6.938;2024-01-30T04:48:24;10.30;99.90
12436;DHT22;6282;51.440;6.938;2024-01-30T04:50:51;10.30;99.90
12436;DHT22;6282;51.440;6.938;2024-01-30T04:53:18;10.30;99.90
12436;DHT22;6282;51.440;6.938;2024-01-30T04:55:46;10.30;99.90
12436;DHT22;6282;51.440;6.938;2024-01-30T04:58:13;10.30;99.90
12436;DHT22;6282;51.440;6.938;2024-01-30T05:00:40;10.10;99.90
12436;DHT22;6282;51.440;6.938;2024-01-30T05:03:06;10.30;99.90
12436;DHT22;6282;51.440;6.938;2024-01-30T05:05:33;10.20;99.90
12436;DHT22;6282;51.440;6.938;2024-01-30T05:08:00;10.20;99.90
12436;DHT22;6282;51.440;6.938;2024-01-30T05:10:27;10.10;99.90
12436;DHT22;6282;51.440;6.938;2024-01-30T05:12:56;10.80;99.90
12436;DHT22;6282;51.440;6.938;2024-01-30T05:15:23;10.70;99.90
12436;DHT22;6282;51.440;6.938;2024-01-30T05:17:49;10.50;99.90
12436;DHT22;6282;51.440;6.938;2024-01-30T05:20:17;10.10;99.90
12436;DHT22;6282;51.440;6.938;2024-01-30T05:22:42;10.10;99.90
12436;DHT22;6282;51.440;6.938;2024-01-30T05:25:10;10.20;99.90
12436;DHT22;6282;51.440;6.938;2024-01-30T05:27:37;9.90;99.90
12436;DHT22;6282;51.440;6.938;2024-01-30T05:30:07;9.90;99.90
12436;DHT22;6282;51.440;6.938;2024-01-30T05:32:34;10.10;99.90
12436;DHT22;6282;51.440;6.938;2024-01-30T05:35:01;10.10;99.90
12436;DHT22;6282;51.440;6.938;2024-01-30T05:37:27;10.30;99.90
12436;DHT22;6282;51.440;6.938;2024-01-30T05:39:54;10.30;99.90
12436;DHT22;6282;51.440;6.938;2024-01-30T05:42:21;10.20;99.90
12436;DHT22;6282;51.440;6.938;2024-01-30T05:44:47;10.10;99.90
12436;DHT22;6282;51.440;6.938;2024-01-30T05:47:16;10.10;99.90
12436;DHT22;6282;51.440;6.938;2024-01-30T05:49:42;10.10;99.90
12436;DHT22;6282;51.440;6.938;2024-01-30T05:52:09;10.10;99.90
12436;DHT22;6282;51.440;6.938;2024-01-30T05:54:36;10.10;99.90
12436;DHT22;6282;51.440;6.938;2024-01-30T05:57:03;10.10;99.90
12436;DHT22;6282;51.440;6.938;2024-01-30T05:59:30;9.90;99.90
12436;DHT22;6282;51.440;6.938;2024-01-30T06:01:56;10.40;99.90
12436;DHT22;6282;51.440;6.938;2024-01-30T06:04:24;10.10;99.90
12436;DHT22;6282;51.440;6.938;2024-01-30T06:06:51;9.90;99.90
12436;DHT22;6282;51.440;6.938;2024-01-30T06:11:45;10.10;99.90
12436;DHT22;6282;51.440;6.938;2024-01-30T06:14:12;10.10;99.90
12436;DHT22;6282;51.440;6.938;2024-01-30T06:16:39;10.10;99.90
12436;DHT22;6282;51.440;6.938;2024-01-30T06:19:05;10.00;99.90
12436;DHT22;6282;51.440;6.938;2024-01-30T06:21:33;9.90;99.90
12436;DHT22;6282;51.440;6.938;2024-01-30T06:24:02;10.00;99.90
12436;DHT22;6282;51.440;6.938;2024-01-30T06:26:29;10.10;99.90
12436;DHT22;6282;51.440;6.938;2024-01-30T06:28:55;10.90;99.90
12436;DHT22;6282;51.440;6.938;2024-01-30T06:31:22;11.10;99.90
12436;DHT22;6282;51.440;6.938;2024-01-30T06:33:49;10.10;99.90
12436;DHT22;6282;51.440;6.938;2024-01-30T06:36:16;10.20;99.90
12436;DHT22;6282;51.440;6.938;2024-01-30T06:38:44;11.10;99.90
12436;DHT22;6282;51.440;6.938;2024-01-30T06:41:11;10.30;99.90
12436;DHT22;6282;51.440;6.938;2024-01-30T06:43:37;10.20;99.90
12436;DHT22;6282;51.440;6.938;2024-01-30T06:46:04;10.60;99.90
12436;DHT22;6282;51.440;6.938;2024-01-30T06:48:31;10.80;99.90
12436;DHT22;6282;51.440;6.938;2024-01-30T06:50:58;10.30;99.90
12436;DHT22;6282;51.440;6.938;2024-01-30T06:53:24;10.80;99.90
12436;DHT22;6282;51.440;6.938;2024-01-30T06:55:53;10.30;99.90
12436;DHT22;6282;51.440;6.938;2024-01-30T06:58:20;10.20;99.90
12436;DHT22;6282;51.440;6.938;2024-01-30T07:00:47;10.20;99.90
12436;DHT22;6282;51.440;6.938;2024-01-30T07:03:13;10.20;99.90
12436;DHT22;6282;51.440;6.938;2024-01-30T07:05:40;10.20;99.90
12436;DHT22;6282;51.440;6.938;2024-01-30T07:08:08;10.20;99.90
12436;DHT22;6282;51.440;6.938;2024-01-30T07:10:34;10.90;99.90
12436;DHT22;6282;51.440;6.938;2024-01-30T07:13:03;10.30;99.90
12436;DHT22;6282;51.440;6.938;2024-01-30T07:15:31;10.30;99.90
12436;DHT22;6282;51.440;6.938;2024-01-30T07:17:58;10.30;99.90
12436;DHT22;6282;51.440;6.938;2024-01-30T07:20:25;10.30;99.90
12436;DHT22;6282;51.440;6.938;2024-01-30T07:22:51;10.30;99.90
12436;DHT22;6282;51.440;6.938;2024-01-30T07:25:18;10.30;99.90
12436;DHT22;6282;51.440;6.938;2024-01-30T07:27:45;10.70;99.90
12436;DHT22;6282;51.440;6.938;2024-01-30T07:30:13;10.30;99.90
12436;DHT22;6282;51.440;6.938;2024-01-30T07:32:42;11.00;99.90
12436;DHT22;6282;51.440;6.938;2024-01-30T07:35:08;10.50;99.90
12436;DHT22;6282;51.440;6.938;2024-01-30T07:37:36;10.40;99.90
12436;DHT22;6282;51.440;6.938;2024-01-30T07:40:04;10.30;99.90
12436;DHT22;6282;51.440;6.938;2024-01-30T07:42:32;10.60;99.90
12436;DHT22;6282;51.440;6.938;2024-01-30T07:44:59;10.30;99.90
12436;DHT22;6282;51.440;6.938;2024-01-30T07:47:27;10.30;99.90
12436;DHT22;6282;51.440;6.938;2024-01-30T07:49:54;10.40;99.90
12436;DHT22;6282;51.440;6.938;2024-01-30T07:52:21;10.40;99.90
12436;DHT22;6282;51.440;6.938;2024-01-30T07:54:48;11.30;99.90
12436;DHT22;6282;51.440;6.938;2024-01-30T08:03:55;10.60;99.90
12436;DHT22;6282;51.440;6.938;2024-01-30T08:06:22;10.60;99.90
12436;DHT22;6282;51.440;6.938;2024-01-30T08:08:49;10.60;99.90
12436;DHT22;6282;51.440;6.938;2024-01-30T08:11:20;10.90;99.90
12436;DHT22;6282;51.440;6.938;2024-01-30T08:13:50;10.60;99.90
12436;DHT22;6282;51.440;6.938;2024-01-30T08:16:17;11.10;99.90
12436;DHT22;6282;51.440;6.938;2024-01-30T08:18:44;10.60;99.90
12436;DHT22;6282;51.440;6.938;2024-01-30T08:21:12;10.60;99.90
12436;DHT22;6282;51.440;6.938;2024-01-30T08:23:39;10.30;99.90
12436;DHT22;6282;51.440;6.938;2024-01-30T08:26:06;10.50;99.90
12436;DHT22;6282;51.440;6.938;2024-01-30T08:28:33;10.50;99.90
12436;DHT22;6282;51.440;6.938;2024-01-30T08:31:00;10.50;99.90
12436;DHT22;6282;51.440;6.938;2024-01-30T08:33:27;10.50;99.90
12436;DHT22;6282;51.440;6.938;2024-01-30T08:35:54;10.50;99.90
12436;DHT22;6282;51.440;6.938;2024-01-30T08:38:22;10.50;99.90
12436;DHT22;6282;51.440;6.938;2024-01-30T08:40:49;11.00;99.90
12436;DHT22;6282;51.440;6.938;2024-01-30T08:43:15;10.50;99.90
12436;DHT22;6282;51.440;6.938;2024-01-30T08:45:42;10.50;99.90
12436;DHT22;6282;51.440;6.938;2024-01-30T08:48:09;10.30;99.90
12436;DHT22;6282;51.440;6.938;2024-01-30T08:53:04;10.30;99.90
12436;DHT22;6282;51.440;6.938;2024-01-30T08:55:32;10.70;99.90
12436;DHT22;6282;51.440;6.938;2024-01-30T08:57:59;10.50;99.90
12436;DHT22;6282;51.440;6.938;2024-01-30T09:00:26;10.70;99.90
12436;DHT22;6282;51.440;6.938;2024-01-30T09:02:53;10.90;99.90
12436;DHT22;6282;51.440;6.938;2024-01-30T09:07:47;10.40;99.90
12436;DHT22;6282;51.440;6.938;2024-01-30T09:10:14;10.70;99.90
12436;DHT22;6282;51.440;6.938;2024-01-30T09:12:42;12.60;99.90
12436;DHT22;6282;51.440;6.938;2024-01-30T09:15:09;10.30;99.90
12436;DHT22;6282;51.440;6.938;2024-01-30T09:17:36;10.90;99.90
12436;DHT22;6282;51.440;6.938;2024-01-30T09:20:04;10.50;99.90
12436;DHT22;6282;51.440;6.938;2024-01-30T09:24:58;10.60;99.90
12436;DHT22;6282;51.440;6.938;2024-01-30T09:27:25;10.50;99.90
12436;DHT22;6282;51.440;6.938;2024-01-30T09:29:53;10.60;99.90
12436;DHT22;6282;51.440;6.938;2024-01-30T09:32:20;10.60;99.90
12436;DHT22;6282;51.440;6.938;2024-01-30T09:37:13;10.80;99.90
12436;DHT22;6282;51.440;6.938;2024-01-30T09:39:43;10.80;99.90
12436;DHT22;6282;51.440;6.938;2024-01-30T09:42:15;11.00;99.90
12436;DHT22;6282;51.440;6.938;2024-01-30T09:44:47;12.40;99.90
12436;DHT22;6282;51.440;6.938;2024-01-30T09:47:18;11.20;99.90
12436;DHT22;6282;51.440;6.938;2024-01-30T09:49:46;11.80;99.90
12436;DHT22;6282;51.440;6.938;2024-01-30T09:52:13;11.30;99.90
12436;DHT22;6282;51.440;6.938;2024-01-30T09:54:41;11.90;99.90
12436;DHT22;6282;51.440;6.938;2024-01-30T09:59:35;11.60;99.90
12436;DHT22;6282;51.440;6.938;2024-01-30T10:02:02;12.10;99.90
12436;DHT22;6282;51.440;6.938;2024-01-30T10:05:58;12.10;99.90
12436;DHT22;6282;51.440;6.938;2024-01-30T10:08:26;11.90;99.90
12436;DHT22;6282;51.440;6.938;2024-01-30T10:10:55;12.00;99.90
12436;DHT22;6282;51.440;6.938;2024-01-30T10:13:22;12.00;99.90
12436;DHT22;6282;51.440;6.938;2024-01-30T10:15:48;12.00;99.90
12436;DHT22;6282;51.440;6.938;2024-01-30T10:18:16;12.00;99.90
12436;DHT22;6282;51.440;6.938;2024-01-30T10:20:42;12.00;99.90
12436;DHT22;6282;51.440;6.938;2024-01-30T10:23:11;12.00;99.90
12436;DHT22;6282;51.440;6.938;2024-01-30T10:25:38;12.10;99.90
12436;DHT22;6282;51.440;6.938;2024-01-30T10:28:05;11.60;99.90
12436;DHT22;6282;51.440;6.938;2024-01-30T10:30:32;12.10;99.90
12436;DHT22;6282;51.440;6.938;2024-01-30T10:32:59;12.50;99.90
12436;DHT22;6282;51.440;6.938;2024-01-30T10:35:26;12.10;99.90
12436;DHT22;6282;51.440;6.938;2024-01-30T10:37:55;12.20;99.90
12436;DHT22;6282;51.440;6.938;2024-01-30T10:40:27;12.20;99.90
12436;DHT22;6282;51.440;6.938;2024-01-30T10:42:55;12.20;99.90
12436;DHT22;6282;51.440;6.938;2024-01-30T10:45:22;12.30;99.90
12436;DHT22;6282;51.440;6.938;2024-01-30T10:47:50;12.30;99.90
12436;DHT22;6282;51.440;6.938;2024-01-30T10:50:20;12.30;99.90
12436;DHT22;6282;51.440;6.938;2024-01-30T10:52:47;12.30;99.90
12436;DHT22;6282;51.440;6.938;2024-01-30T10:55:16;12.40;99.90
12436;DHT22;6282;51.440;6.938;2024-01-30T10:57:44;12.40;99.90
12436;DHT22;6282;51.440;6.938;2024-01-30T11:00:13;12.40;99.90
12436;DHT22;6282;51.440;6.938;2024-01-30T11:02:45;12.40;99.90
12436;DHT22;6282;51.440;6.938;2024-01-30T11:05:13;12.40;99.90
12436;DHT22;6282;51.440;6.938;2024-01-30T11:07:41;12.40;99.90
12436;DHT22;6282;51.440;6.938;2024-01-30T11:10:08;12.40;99.90
12436;DHT22;6282;51.440;6.938;2024-01-30T11:12:39;12.50;99.90
12436;DHT22;6282;51.440;6.938;2024-01-30T11:15:10;12.50;99.90
12436;DHT22;6282;51.440;6.938;2024-01-30T11:17:42;12.60;99.90
12436;DHT22;6282;51.440;6.938;2024-01-30T11:20:10;12.60;99.90
12436;DHT22;6282;51.440;6.938;2024-01-30T11:22:41;12.60;99.90
12436;DHT22;6282;51.440;6.938;2024-01-30T11:25:11;12.60;99.90
12436;DHT22;6282;51.440;6.938;2024-01-30T11:27:38;12.60;99.90
12436;DHT22;6282;51.440;6.938;2024-01-30T11:30:06;12.60;99.90
12436;DHT22;6282;51.440;6.938;2024-01-30T11:32:35;12.70;99.90
12436;DHT22;6282;51.440;6.938;2024-01-30T11:35:03;12.70;99.90
12436;DHT22;6282;51.440;6.938;2024-01-30T11:37:32;12.70;99.90
12436;DHT22;6282;51.440;6.938;2024-01-30T11:40:02;12.70;99.90
12436;DHT22;6282;51.440;6.938;2024-01-30T11:42:30;12.70;99.90
12436;DHT22;6282;51.440;6.938;2024-01-30T11:44:59;12.70;99.90
12436;DHT22;6282;51.440;6.938;2024-01-30T11:47:26;12.70;99.90
12436;DHT22;6282;51.440;6.938;2024-01-30T11:49:55;12.60;99.90
12436;DHT22;6282;51.440;6.938;2024-01-30T11:52:22;12.60;99.90
12436;DHT22;6282;51.440;6.938;2024-01-30T11:54:49;12.60;99.90
12436;DHT22;6282;51.440;6.938;2024-01-30T11:57:15;12.60;99.90
12436;DHT22;6282;51.440;6.938;2024-01-30T11:59:42;12.50;99.90
12436;DHT22;6282;51.440;6.938;2024-01-30T12:02:15;12.50;99.90
12436;DHT22;6282;51.440;6.938;2024-01-30T12:04:42;12.50;99.90
12436;DHT22;6282;51.440;6.938;2024-01-30T12:07:11;12.50;99.90
12436;DHT22;6282;51.440;6.938;2024-01-30T12:09:37;12.50;99.90
12436;DHT22;6282;51.440;6.938;2024-01-30T12:12:06;12.40;99.90
12436;DHT22;6282;51.440;6.938;2024-01-30T12:14:37;12.30;99.90
12436;DHT22;6282;51.440;6.938;2024-01-30T12:17:04;12.30;99.90
12436;DHT22;6282;51.440;6.938;2024-01-30T12:19:33;12.30;99.90
12436;DHT22;6282;51.440;6.938;2024-01-30T12:22:00;12.30;99.90
12436;DHT22;6282;51.440;6.938;2024-01-30T12:24:28;12.30;99.90
12436;DHT22;6282;51.440;6.938;2024-01-30T12:26:57;12.30;99.90
12436;DHT22;6282;51.440;6.938;2024-01-30T12:29:24;12.40;99.90
12436;DHT22;6282;51.440;6.938;2024-01-30T12:31:53;12.40;99.90
12436;DHT22;6282;51.440;6.938;2024-01-30T12:34:21;12.30;99.90
12436;DHT22;6282;51.440;6.938;2024-01-30T12:36:48;12.40;99.90
12436;DHT22;6282;51.440;6.938;2024-01-30T12:39:16;12.40;99.90
12436;DHT22;6282;51.440;6.938;2024-01-30T12:41:44;12.40;99.90
12436;DHT22;6282;51.440;6.938;2024-01-30T12:44:13;12.40;99.90
12436;DHT22;6282;51.440;6.938;2024-01-30T12:46:40;12.50;99.90
12436;DHT22;6282;51.440;6.938;2024-01-30T12:49:06;12.40;99.90
12436;DHT22;6282;51.440;6.938;2024-01-30T12:51:34;12.20;99.90
12436;DHT22;6282;51.440;6.938;2024-01-30T12:54:05;12.30;99.90
12436;DHT22;6282;51.440;6.938;2024-01-30T12:56:32;12.40;99.90
12436;DHT22;6282;51.440;6.938;2024-01-30T12:59:00;12.80;99.90
12436;DHT22;6282;51.440;6.938;2024-01-30T13:01:27;12.20;99.90
12436;DHT22;6282;51.440;6.938;2024-01-30T13:03:53;12.30;99.90
12436;DHT22;6282;51.440;6.938;2024-01-30T13:06:22;12.30;99.90
12436;DHT22;6282;51.440;6.938;2024-01-30T13:08:49;12.30;99.90
12436;DHT22;6282;51.440;6.938;2024-01-30T13:11:16;12.30;99.90
12436;DHT22;6282;51.440;6.938;2024-01-30T13:13:43;12.30;99.90
12436;DHT22;6282;51.440;6.938;2024-01-30T13:16:11;12.30;99.90
12436;DHT22;6282;51.440;6.938;2024-01-30T13:18:38;12.30;99.90
12436;DHT22;6282;51.440;6.938;2024-01-30T13:21:04;12.40;99.90
12436;DHT22;6282;51.440;6.938;2024-01-30T13:23:31;12.30;99.90
12436;DHT22;6282;51.440;6.938;2024-01-30T13:25:58;12.30;99.90
12436;DHT22;6282;51.440;6.938;2024-01-30T13:28:25;12.20;99.90
12436;DHT22;6282;51.440;6.938;2024-01-30T13:30:52;12.20;99.90
12436;DHT22;6282;51.440;6.938;2024-01-30T13:33:35;12.30;99.90
12436;DHT22;6282;51.440;6.938;2024-01-30T13:36:02;12.70;99.90
12436;DHT22;6282;51.440;6.938;2024-01-30T13:38:29;12.30;99.90
12436;DHT22;6282;51.440;6.938;2024-01-30T13:40:55;12.30;99.90
12436;DHT22;6282;51.440;6.938;2024-01-30T13:43:22;12.40;99.90
12436;DHT22;6282;51.440;6.938;2024-01-30T13:45:49;12.30;99.90
12436;DHT22;6282;51.440;6.938;2024-01-30T13:48:15;12.30;99.90
12436;DHT22;6282;51.440;6.938;2024-01-30T13:50:44;12.30;99.90
12436;DHT22;6282;51.440;6.938;2024-01-30T13:53:11;12.30;99.90
12436;DHT22;6282;51.440;6.938;2024-01-30T13:55:38;12.30;99.90
12436;DHT22;6282;51.440;6.938;2024-01-30T13:58:06;12.40;99.90
12436;DHT22;6282;51.440;6.938;2024-01-30T14:00:33;12.40;99.90
12436;DHT22;6282;51.440;6.938;2024-01-30T14:03:00;12.40;99.90
12436;DHT22;6282;51.440;6.938;2024-01-30T14:05:28;12.40;99.90
12436;DHT22;6282;51.440;6.938;2024-01-30T14:07:56;12.50;99.90
12436;DHT22;6282;51.440;6.938;2024-01-30T14:10:24;12.50;99.90
12436;DHT22;6282;51.440;6.938;2024-01-30T14:12:51;12.50;99.90
12436;DHT22;6282;51.440;6.938;2024-01-30T14:15:18;12.70;99.90
12436;DHT22;6282;51.440;6.938;2024-01-30T14:17:45;12.60;99.90
12436;DHT22;6282;51.440;6.938;2024-01-30T14:20:14;12.70;99.90
12436;DHT22;6282;51.440;6.938;2024-01-30T14:22:42;12.70;99.90
12436;DHT22;6282;51.440;6.938;2024-01-30T14:25:10;12.70;99.90
12436;DHT22;6282;51.440;6.938;2024-01-30T14:27:37;12.80;99.90
12436;DHT22;6282;51.440;6.938;2024-01-30T14:30:05;12.80;99.90
12436;DHT22;6282;51.440;6.938;2024-01-30T14:32:33;12.80;99.90
12436;DHT22;6282;51.440;6.938;2024-01-30T14:35:00;12.80;99.90
12436;DHT22;6282;51.440;6.938;2024-01-30T14:37:27;12.80;99.90
12436;DHT22;6282;51.440;6.938;2024-01-30T14:39:55;12.70;99.90
12436;DHT22;6282;51.440;6.938;2024-01-30T14:42:23;12.60;99.90
12436;DHT22;6282;51.440;6.938;2024-01-30T14:44:50;12.60;99.90
12436;DHT22;6282;51.440;6.938;2024-01-30T14:47:17;12.60;99.90
12436;DHT22;6282;51.440;6.938;2024-01-30T14:49:44;12.60;99.90
12436;DHT22;6282;51.440;6.938;2024-01-30T14:52:11;12.60;99.90
12436;DHT22;6282;51.440;6.938;2024-01-30T14:54:38;12.60;99.90
12436;DHT22;6282;51.440;6.938;2024-01-30T14:57:04;12.50;99.90
12436;DHT22;6282;51.440;6.938;2024-01-30T14:59:33;12.50;99.90
12436;DHT22;6282;51.440;6.938;2024-01-30T15:01:59;12.40;99.90
12436;DHT22;6282;51.440;6.938;2024-01-30T15:04:26;12.40;99.90
12436;DHT22;6282;51.440;6.938;2024-01-30T15:06:52;12.40;99.90
12436;DHT22;6282;51.440;6.938;2024-01-30T15:09:19;12.40;99.90
12436;DHT22;6282;51.440;6.938;2024-01-30T15:11:47;12.30;99.90
12436;DHT22;6282;51.440;6.938;2024-01-30T15:14:15;12.40;99.90
12436;DHT22;6282;51.440;6.938;2024-01-30T15:16:43;12.30;99.90
12436;DHT22;6282;51.440;6.938;2024-01-30T15:19:10;12.30;99.90
12436;DHT22;6282;51.440;6.938;2024-01-30T15:21:37;12.20;99.90
12436;DHT22;6282;51.440;6.938;2024-01-30T15:24:04;12.20;99.90
12436;DHT22;6282;51.440;6.938;2024-01-30T15:26:31;12.10;99.90
12436;DHT22;6282;51.440;6.938;2024-01-30T15:28:58;12.20;99.90
12436;DHT22;6282;51.440;6.938;2024-01-30T15:31:25;11.90;99.90
12436;DHT22;6282;51.440;6.938;2024-01-30T15:33:53;11.80;99.90
12436;DHT22;6282;51.440;6.938;2024-01-30T15:36:20;11.90;99.90
12436;DHT22;6282;51.440;6.938;2024-01-30T15:38:47;11.90;99.90
12436;DHT22;6282;51.440;6.938;2024-01-30T15:41:13;11.90;99.90
12436;DHT22;6282;51.440;6.938;2024-01-30T15:43:40;11.80;99.90
12436;DHT22;6282;51.440;6.938;2024-01-30T15:46:07;11.80;99.90
12436;DHT22;6282;51.440;6.938;2024-01-30T15:48:34;11.80;99.90
12436;DHT22;6282;51.440;6.938;2024-01-30T15:51:02;11.60;99.90
12436;DHT22;6282;51.440;6.938;2024-01-30T15:53:28;11.60;99.90
12436;DHT22;6282;51.440;6.938;2024-01-30T15:55:55;11.50;99.90
12436;DHT22;6282;51.440;6.938;2024-01-30T15:58:22;11.40;99.90
12436;DHT22;6282;51.440;6.938;2024-01-30T16:00:49;11.50;99.90
12436;DHT22;6282;51.440;6.938;2024-01-30T16:03:16;11.50;99.90
12436;DHT22;6282;51.440;6.938;2024-01-30T16:05:42;11.50;99.90
12436;DHT22;6282;51.440;6.938;2024-01-30T16:08:11;11.50;99.90
12436;DHT22;6282;51.440;6.938;2024-01-30T16:10:37;11.50;99.90